Time;durP1;ratioP1;P1;durP2;ratioP2;P2;SDS_P1;SDS_P2;PMS_P1;PMS_P2;Temp;Humidity;BMP_temperature;BMP_pressure;BME280_temperature;BME280_humidity;BME280_pressure;Samples;Min_cycle;Max_cycle;Signal;HPM_P1;HPM_P2
2022/10/04 00:01:47;;;;;;;16.95;8.90;;;;;;;11.13;99.61;102310.06;5049135;28;20043;-56
2022/10/04 00:04:27;;;;;;;14.40;8.43;;;;;;;11.19;99.16;102307.84;5040538;28;20029;-57
2022/10/04 00:07:01;;;;;;;18.73;9.63;;;;;;;11.09;99.14;102303.31;5036103;28;20366;-56
2022/10/04 00:09:35;;;;;;;17.60;9.32;;;;;;;11.15;99.74;102308.09;5040391;28;20167;-57
2022/10/04 00:12:01;;;;;;;17.77;9.32;;;;;;;11.16;99.30;102309.78;5044659;28;20358;-56
2022/10/04 00:14:31;;;;;;;14.50;9.18;;;;;;;11.15;99.00;102302.78;5038680;28;20100;-57
2022/10/04 00:16:58;;;;;;;17.23;9.07;;;;;;;11.20;98.98;102309.53;5034846;28;20077;-56
2022/10/04 00:19:44;;;;;;;18.23;9.48;;;;;;;11.22;99.46;102296.97;5036643;28;20575;-56
2022/10/04 00:22:11;;;;;;;17.38;9.07;;;;;;;11.19;98.96;102298.06;5052422;28;20035;-56
2022/10/04 00:25:01;;;;;;;17.90;9.00;;;;;;;11.20;99.41;102291.75;5050161;28;20060;-56
2022/10/04 00:27:27;;;;;;;19.50;9.82;;;;;;;11.16;98.75;102293.03;5039325;28;20125;-57
2022/10/04 00:30:01;;;;;;;15.13;8.77;;;;;;;11.12;99.17;102289.78;5041809;28;20465;-57
2022/10/04 00:32:44;;;;;;;15.48;9.07;;;;;;;11.06;99.36;102286.78;5049207;28;20640;-57
2022/10/04 00:35:25;;;;;;;17.52;9.50;;;;;;;11.11;98.74;102277.47;5039105;28;20042;-56
2022/10/04 00:38:11;;;;;;;21.05;9.48;;;;;;;11.04;98.87;102278.94;5040370;28;20052;-56
2022/10/04 00:40:54;;;;;;;18.20;9.48;;;;;;;11.00;98.87;102274.88;5038181;28;21427;-57
2022/10/04 00:43:42;;;;;;;16.93;9.00;;;;;;;11.05;98.17;102274.50;5040536;28;20034;-57
2022/10/04 00:46:14;;;;;;;16.55;9.27;;;;;;;11.04;98.17;102278.94;5037999;28;20280;-56
2022/10/04 00:48:45;;;;;;;;;;;;;;;11.13;98.01;102294.13;5052025;28;20358;-57
2022/10/04 00:51:44;;;;;;;17.55;10.27;;;;;;;11.03;98.49;102282.59;5050689;28;20255;-57
2022/10/04 00:54:21;;;;;;;20.15;10.43;;;;;;;11.00;99.50;102281.03;5033285;28;20431;-56
2022/10/04 00:56:53;;;;;;;18.33;10.00;;;;;;;10.98;98.96;102275.00;5046755;28;20021;-56
2022/10/04 00:59:28;;;;;;;21.70;11.15;;;;;;;10.94;98.16;102275.38;5035468;28;20068;-57
2022/10/04 01:02:01;;;;;;;20.75;11.05;;;;;;;10.90;98.19;102267.69;5044309;28;20030;-56
2022/10/04 01:04:34;;;;;;;16.70;10.43;;;;;;;10.88;97.98;102253.72;5043538;28;20033;-57
2022/10/04 01:07:02;;;;;;;16.92;10.00;;;;;;;10.81;97.95;102257.81;5037773;28;20079;-57
2022/10/04 01:09:33;;;;;;;18.50;10.60;;;;;;;10.83;98.32;102247.94;5034738;28;20017;-57
2022/10/04 01:12:06;;;;;;;19.80;10.13;;;;;;;10.75;98.78;102237.13;5042087;28;20033;-57
2022/10/04 01:14:48;;;;;;;19.98;10.65;;;;;;;10.81;98.19;102236.59;5046501;28;20116;-57
2022/10/04 01:17:13;;;;;;;18.98;10.07;;;;;;;10.80;98.87;102245.53;5048641;28;20123;-57
2022/10/04 01:19:49;;;;;;;18.58;10.43;;;;;;;10.72;98.26;102242.69;5046802;28;20520;-57
2022/10/04 01:22:41;;;;;;;17.73;10.68;;;;;;;10.73;98.72;102236.41;5049855;28;20115;-58
2022/10/04 01:25:08;;;;;;;19.38;10.43;;;;;;;10.70;98.91;102237.50;5050332;28;20112;-57
2022/10/04 01:27:40;;;;;;;21.95;11.05;;;;;;;10.61;99.02;102241.75;5038516;28;20030;-57
2022/10/04 01:30:09;;;;;;;16.75;10.52;;;;;;;10.58;98.42;102227.91;5049789;28;20044;-57
2022/10/04 01:32:37;;;;;;;19.77;10.73;;;;;;;10.65;98.71;102225.59;5034728;28;20029;-57
2022/10/04 01:35:03;;;;;;;22.45;10.73;;;;;;;10.66;98.68;102232.59;5043986;28;20516;-56
2022/10/04 01:37:28;;;;;;;19.50;11.00;;;;;;;10.65;97.91;102238.88;5046748;28;20055;-58
2022/10/04 01:39:54;;;;;;;18.30;11.25;;;;;;;10.59;98.13;102238.41;5041127;28;20037;-57
2022/10/04 01:42:24;;;;;;;23.40;10.50;;;;;;;10.58;98.31;102231.44;5042292;28;20381;-57
2022/10/04 01:45:06;;;;;;;20.02;11.73;;;;;;;10.57;98.72;102218.28;5035575;28;20091;-56
2022/10/04 01:47:43;;;;;;;16.48;11.45;;;;;;;10.51;98.70;102218.78;5040263;28;20032;-58
2022/10/04 01:50:17;;;;;;;20.75;11.50;;;;;;;10.50;98.45;102217.94;5034265;28;20033;-56
2022/10/04 01:52:52;;;;;;;19.95;11.48;;;;;;;10.56;98.67;102225.38;5046957;28;20032;-56
2022/10/04 01:55:24;;;;;;;21.30;11.63;;;;;;;10.52;98.99;102223.13;5044694;28;20559;-56
2022/10/04 01:58:01;;;;;;;21.50;12.23;;;;;;;10.50;99.25;102220.59;5032011;28;20030;-58
2022/10/04 02:00:27;;;;;;;18.40;11.43;;;;;;;10.47;99.04;102219.03;5033349;28;20045;-57
2022/10/04 02:02:58;;;;;;;20.35;11.68;;;;;;;10.43;99.10;102214.97;5041375;28;20021;-57
2022/10/04 02:05:39;;;;;;;22.75;10.57;;;;;;;10.49;99.03;102216.25;5032468;28;20025;-57
2022/10/04 02:08:08;;;;;;;19.92;11.38;;;;;;;10.49;99.26;102210.94;5036486;28;20047;-56
2022/10/04 02:10:36;;;;;;;20.23;12.32;;;;;;;10.40;98.97;102206.41;5035958;28;20029;-57
2022/10/04 02:13:07;;;;;;;21.02;11.98;;;;;;;10.41;99.03;102197.47;5039082;28;20053;-57
2022/10/04 02:15:38;;;;;;;20.15;11.88;;;;;;;10.34;99.57;102197.97;5041190;28;20094;-57
2022/10/04 02:18:11;;;;;;;21.02;12.32;;;;;;;10.34;98.52;102192.66;5045948;28;20079;-57
2022/10/04 02:20:39;;;;;;;21.90;11.50;;;;;;;10.33;98.54;102191.00;5039139;28;20029;-57
2022/10/04 02:23:05;;;;;;;21.70;11.60;;;;;;;10.29;99.16;102181.59;5036935;28;20045;-57
2022/10/04 02:25:31;;;;;;;19.73;11.73;;;;;;;10.30;98.82;102177.97;5036131;28;20033;-57
2022/10/04 02:27:56;;;;;;;16.05;11.52;;;;;;;10.28;98.17;102177.28;5031918;28;20056;-57
2022/10/04 02:30:22;;;;;;;18.50;11.80;;;;;;;10.18;98.84;102165.72;5033303;28;20025;-56
2022/10/04 02:32:59;;;;;;;21.52;12.27;;;;;;;10.16;99.07;102155.25;5044028;28;20072;-56
2022/10/04 02:35:33;;;;;;;22.30;11.90;;;;;;;10.18;99.02;102155.97;5037382;28;20064;-57
2022/10/04 02:38:18;;;;;;;19.80;11.95;;;;;;;10.18;98.79;102149.81;5035130;28;20095;-57
2022/10/04 02:40:52;;;;;;;20.48;11.95;;;;;;;10.16;99.04;102149.94;5036197;28;20044;-57
2022/10/04 02:43:27;;;;;;;18.80;12.20;;;;;;;10.15;99.05;102139.47;5044794;28;20079;-57
2022/10/04 02:46:06;;;;;;;20.52;12.00;;;;;;;10.17;99.77;102153.44;5032355;28;20047;-56
2022/10/04 02:48:46;;;;;;;23.80;12.90;;;;;;;10.17;99.31;102137.53;5047561;28;20028;-57
2022/10/04 02:51:32;;;;;;;21.48;12.32;;;;;;;10.11;99.86;102132.75;5047890;28;20052;-56
2022/10/04 02:54:15;;;;;;;20.83;13.05;;;;;;;9.95;99.41;102108.34;5044957;28;20131;-56
2022/10/04 02:56:41;;;;;;;20.55;12.52;;;;;;;10.02;99.65;102115.78;5039885;28;20068;-57
2022/10/04 02:59:06;;;;;;;19.88;12.25;;;;;;;10.01;99.26;102104.34;5042481;28;20127;-56
2022/10/04 03:01:59;;;;;;;21.52;12.27;;;;;;;9.97;99.25;102102.94;5034078;28;20033;-58
2022/10/04 03:04:27;;;;;;;23.23;12.70;;;;;;;9.93;99.49;102104.13;5037536;28;20075;-56
2022/10/04 03:06:54;;;;;;;23.70;12.73;;;;;;;9.93;99.69;102104.13;5032880;28;20037;-56
2022/10/04 03:09:22;;;;;;;21.65;13.20;;;;;;;9.85;99.97;102098.59;5037032;28;20033;-56
2022/10/04 03:11:50;;;;;;;23.73;13.68;;;;;;;9.86;100.00;102102.97;5038289;28;20481;-57
2022/10/04 03:14:19;;;;;;;23.98;14.02;;;;;;;9.84;100.00;102097.78;5042984;28;20494;-57
2022/10/04 03:16:49;;;;;;;24.77;14.32;;;;;;;9.86;100.00;102102.97;5031855;28;20036;-56
2022/10/04 03:19:17;;;;;;;22.67;13.55;;;;;;;9.79;100.00;102100.81;5031135;28;20034;-57
2022/10/04 03:21:46;;;;;;;22.00;13.60;;;;;;;9.79;99.91;102098.16;5039282;28;20029;-57
2022/10/04 03:24:22;;;;;;;19.55;13.15;;;;;;;9.75;100.00;102091.44;5036703;28;20045;-57
2022/10/04 03:26:52;;;;;;;25.50;14.18;;;;;;;9.78;99.58;102096.47;5036138;28;20461;-57
2022/10/04 03:29:20;;;;;;;23.58;14.38;;;;;;;9.80;99.55;102093.69;5045117;28;20112;-57
2022/10/04 03:31:50;;;;;;;23.77;13.55;;;;;;;9.79;100.00;102097.31;5043762;28;20021;-57
2022/10/04 03:34:18;;;;;;;23.00;13.35;;;;;;;9.80;99.83;102094.56;5039977;28;20029;-57
2022/10/04 03:36:45;;;;;;;22.48;13.70;;;;;;;9.73;99.70;102080.13;5053752;28;20074;-57
2022/10/04 03:39:16;;;;;;;23.40;14.18;;;;;;;9.74;99.48;102083.59;5038178;28;20060;-56
2022/10/04 03:41:41;;;;;;;23.23;14.18;;;;;;;9.73;99.40;102077.47;5048004;28;20387;-57
2022/10/04 03:44:15;;;;;;;21.50;13.25;;;;;;;9.68;99.55;102069.06;5051357;28;20033;-57
2022/10/04 03:46:42;;;;;;;23.65;13.57;;;;;;;9.66;99.66;102076.28;5039982;28;20029;-57
2022/10/04 03:49:10;;;;;;;24.75;13.63;;;;;;;9.67;99.83;102075.34;5051569;28;20075;-56
2022/10/04 03:51:37;;;;;;;20.00;13.60;;;;;;;9.63;99.15;102071.25;5044764;28;20435;-58
2022/10/04 03:54:02;;;;;;;22.13;13.02;;;;;;;9.60;99.86;102069.69;5046534;28;20040;-56
2022/10/04 03:56:31;;;;;;;24.92;13.68;;;;;;;9.59;99.46;102061.84;5051752;28;20025;-56
2022/10/04 03:58:58;;;;;;;22.05;13.40;;;;;;;9.63;99.67;102068.59;5040759;28;20024;-57
2022/10/04 04:01:30;;;;;;;23.05;13.27;;;;;;;9.59;99.30;102059.22;5038933;28;20037;-59
2022/10/04 04:04:21;;;;;;;23.75;13.65;;;;;;;9.60;99.56;102061.75;5040535;28;20041;-56
2022/10/04 04:06:54;;;;;;;21.23;13.02;;;;;;;9.52;99.73;102054.41;5042944;28;20040;-57
2022/10/04 04:09:40;;;;;;;20.98;13.02;;;;;;;9.57;99.74;102058.50;5041030;28;20461;-57
2022/10/04 04:12:13;;;;;;;22.02;13.52;;;;;;;9.52;99.63;102064.19;5048856;28;20496;-57
2022/10/04 04:14:40;;;;;;;;;;;;;;;9.66;98.66;102060.38;5038390;28;20048;-57
2022/10/04 04:17:37;;;;;;;21.17;13.00;;;;;;;9.54;99.94;102060.41;5034479;28;20011;-57
2022/10/04 04:20:11;;;;;;;21.42;13.07;;;;;;;9.46;99.18;102057.56;5041920;28;20512;-56
2022/10/04 04:22:38;;;;;;;21.23;12.30;;;;;;;9.45;99.11;102065.63;5049235;28;20044;-57
2022/10/04 04:25:07;;;;;;;24.45;12.45;;;;;;;9.47;99.42;102067.16;5040793;28;20026;-56
2022/10/04 04:27:39;;;;;;;21.75;12.70;;;;;;;9.48;99.49;102068.84;5042813;28;20126;-57
2022/10/04 04:30:05;;;;;;;21.23;12.27;;;;;;;9.44;99.21;102062.13;5040365;28;20032;-57
2022/10/04 04:32:36;;;;;;;22.85;12.77;;;;;;;9.40;99.44;102063.34;5048704;28;20032;-59
2022/10/04 04:35:06;;;;;;;20.73;12.75;;;;;;;9.40;99.42;102066.00;5040323;28;20028;-57
2022/10/04 04:37:38;;;;;;;23.77;12.25;;;;;;;9.38;99.92;102067.94;5043898;28;20029;-57
2022/10/04 04:40:19;;;;;;;21.90;13.07;;;;;;;9.37;100.00;102066.25;5033992;28;20497;-57
2022/10/04 04:42:46;;;;;;;22.77;12.93;;;;;;;9.33;99.61;102062.16;5049324;28;20036;-56
2022/10/04 04:45:24;;;;;;;23.40;12.80;;;;;;;9.34;99.63;102053.25;5038866;28;20025;-57
2022/10/04 04:47:52;;;;;;;22.83;12.80;;;;;;;9.26;99.07;102052.06;5041060;28;20029;-57
2022/10/04 04:50:19;;;;;;;26.02;12.30;;;;;;;9.25;98.74;102042.44;5039874;28;20480;-57
2022/10/04 04:52:49;;;;;;;23.60;12.32;;;;;;;9.25;99.41;102042.44;5044055;28;20029;-57
2022/10/04 04:55:23;;;;;;;21.55;12.82;;;;;;;9.26;99.81;102038.84;5037427;28;20029;-57
2022/10/04 04:57:54;;;;;;;19.90;12.27;;;;;;;9.27;99.95;102034.34;5034662;28;20036;-57
2022/10/04 05:00:26;;;;;;;21.48;13.02;;;;;;;9.22;99.41;102031.28;5038740;28;20519;-57
2022/10/04 05:02:54;;;;;;;22.67;12.77;;;;;;;9.20;99.16;102038.47;5040079;28;20116;-56
2022/10/04 05:05:22;;;;;;;21.50;12.60;;;;;;;9.20;100.00;102044.63;5038954;28;20037;-56
2022/10/04 05:07:49;;;;;;;22.52;12.65;;;;;;;9.20;100.00;102049.06;5038392;28;20033;-57
2022/10/04 05:10:20;;;;;;;21.17;12.30;;;;;;;9.14;99.59;102045.09;5036845;28;20112;-58
2022/10/04 05:12:46;;;;;;;21.85;12.80;;;;;;;9.20;99.95;102049.91;5038725;28;20032;-57
2022/10/04 05:15:11;;;;;;;22.15;12.20;;;;;;;9.18;99.51;102045.69;5036477;28;20362;-56
2022/10/04 05:17:37;;;;;;;20.27;12.38;;;;;;;9.17;99.63;102044.84;5041652;28;20028;-57
2022/10/04 05:20:03;;;;;;;21.95;12.32;;;;;;;9.17;100.00;102044.84;5018439;28;20087;-56
2022/10/04 05:22:30;;;;;;;17.98;11.52;;;;;;;9.15;99.78;102044.13;5037858;28;20086;-58
2022/10/04 05:25:05;;;;;;;19.98;11.63;;;;;;;9.11;99.61;102040.03;5042409;28;20099;-57
2022/10/04 05:27:43;;;;;;;21.17;11.75;;;;;;;9.13;99.13;102041.59;5038731;28;20017;-57
2022/10/04 05:30:30;;;;;;;18.75;10.60;;;;;;;9.14;99.49;102040.63;5036372;28;20388;-58
2022/10/04 05:33:13;;;;;;;16.60;10.48;;;;;;;9.13;99.24;102040.78;5045017;28;20125;-57
2022/10/04 05:35:56;;;;;;;16.58;10.77;;;;;;;9.13;98.76;102040.78;5038218;28;20037;-57
2022/10/04 05:38:41;;;;;;;18.58;10.73;;;;;;;9.16;99.69;102037.88;5034955;28;20124;-57
2022/10/04 05:41:35;;;;;;;21.10;10.20;;;;;;;9.07;99.39;102042.09;5037896;28;20037;-56
2022/10/04 05:44:01;;;;;;;16.38;10.07;;;;;;;9.10;99.50;102048.94;5043674;28;20154;-57
2022/10/04 05:46:33;;;;;;;16.23;9.90;;;;;;;9.04;98.99;102041.50;5040964;28;20052;-58
2022/10/04 05:49:12;;;;;;;19.92;10.02;;;;;;;9.09;99.66;102047.28;5035863;28;20037;-57
2022/10/04 05:51:48;;;;;;;17.92;9.55;;;;;;;9.09;99.21;102052.56;5036489;28;20080;-57
2022/10/04 05:54:18;;;;;;;17.73;9.30;;;;;;;9.08;99.46;102048.25;5041043;28;20033;-59
2022/10/04 05:57:03;;;;;;;16.88;9.20;;;;;;;9.14;99.74;102059.16;5034814;28;20029;-57
2022/10/04 05:59:43;;;;;;;16.30;9.05;;;;;;;9.07;99.49;102065.09;5033447;28;20484;-56
2022/10/04 06:02:26;;;;;;;18.80;9.00;;;;;;;9.06;98.71;102063.38;5036980;28;20597;-57
2022/10/04 06:04:59;;;;;;;18.67;8.77;;;;;;;9.06;99.02;102068.66;5037017;28;20025;-58
2022/10/04 06:07:39;;;;;;;17.27;8.73;;;;;;;9.04;98.95;102060.88;5031613;28;20030;-57
2022/10/04 06:10:33;;;;;;;20.70;8.90;;;;;;;9.10;99.43;102056.88;5031130;28;20029;-58
2022/10/04 06:13:08;;;;;;;19.23;8.90;;;;;;;9.06;99.00;102058.94;5037791;28;20110;-58
2022/10/04 06:15:45;;;;;;;19.67;8.23;;;;;;;9.10;99.24;102067.47;5033792;28;20025;-58
2022/10/04 06:18:20;;;;;;;15.27;8.30;;;;;;;9.13;99.41;102064.59;5028545;28;20481;-57
2022/10/04 06:20:45;;;;;;;15.60;7.97;;;;;;;9.10;99.09;102070.13;5028425;28;20071;-59
2022/10/04 06:23:15;;;;;;;15.65;8.25;;;;;;;9.10;99.28;102062.19;5030612;28;20122;-58
2022/10/04 06:26:04;;;;;;;16.20;8.70;;;;;;;9.15;99.02;102068.81;5028582;28;20034;-58
2022/10/04 06:28:38;;;;;;;21.70;8.23;;;;;;;9.15;99.19;102062.66;5029016;28;20033;-58
2022/10/04 06:31:48;;;;;;;14.15;7.63;;;;;;;9.22;98.91;102063.03;5029662;28;20400;-58
2022/10/04 06:34:31;;;;;;;15.13;7.78;;;;;;;9.23;99.09;102062.06;5039185;28;20041;-58
2022/10/04 06:37:16;;;;;;;16.23;8.40;;;;;;;9.17;98.49;102058.06;5035989;28;20025;-58
2022/10/04 06:39:54;;;;;;;14.32;8.02;;;;;;;9.17;98.99;102060.72;5033919;28;20203;-60
2022/10/04 06:42:41;;;;;;;16.77;7.60;;;;;;;9.19;99.29;102053.53;5037387;28;20128;-57
2022/10/04 06:45:35;;;;;;;14.80;7.47;;;;;;;9.24;98.77;102056.63;5034494;28;20025;-58
2022/10/04 06:48:22;;;;;;;12.38;6.75;;;;;;;9.23;98.62;102057.59;5042680;28;20499;-58
2022/10/04 06:51:00;;;;;;;18.63;8.63;;;;;;;9.21;98.07;102051.59;5039458;28;20044;-59
2022/10/04 06:53:57;;;;;;;16.77;7.90;;;;;;;9.25;97.74;102057.47;5027943;28;20033;-57
2022/10/04 06:56:22;;;;;;;20.73;8.50;;;;;;;9.21;97.30;102056.88;5031173;28;20476;-58
2022/10/04 06:59:12;;;;;;;13.75;7.30;;;;;;;9.22;98.04;102053.25;5040731;28;20045;-58
2022/10/04 07:02:09;;;;;;;14.95;7.60;;;;;;;9.22;97.86;102055.91;5037929;28;20036;-58
2022/10/04 07:04:45;;;;;;;17.63;7.63;;;;;;;9.16;97.58;102048.47;5038972;28;20042;-57
2022/10/04 07:07:36;;;;;;;15.45;7.40;;;;;;;9.21;98.05;102056.88;5034946;28;20025;-58
2022/10/04 07:10:07;;;;;;;18.30;7.60;;;;;;;9.23;97.79;102047.00;5047005;28;20037;-58
2022/10/04 07:12:39;;;;;;;16.23;7.43;;;;;;;9.17;97.29;102038.72;5038217;28;20029;-58
2022/10/04 07:15:16;;;;;;;14.30;7.50;;;;;;;9.25;97.82;102047.75;5051426;28;20032;-58
2022/10/04 07:17:44;;;;;;;17.50;7.65;;;;;;;9.32;97.91;102041.94;5048230;28;20523;-58
2022/10/04 07:20:19;;;;;;;16.50;7.30;;;;;;;9.39;97.41;102037.84;5039009;28;20691;-58
2022/10/04 07:22:52;;;;;;;14.50;7.28;;;;;;;9.44;97.84;102030.38;5042048;28;20047;-58
2022/10/04 07:25:27;;;;;;;16.63;7.57;;;;;;;9.52;97.49;102027.09;5039975;28;20033;-61
2022/10/04 07:31:02;;;;;;;17.52;7.68;;;;;;;9.63;97.04;102044.75;5037137;28;20032;-59
2022/10/04 07:33:32;;;;;;;16.33;7.78;;;;;;;9.61;96.68;102042.22;5037578;28;20111;-58
2022/10/04 07:36:19;;;;;;;14.93;7.53;;;;;;;9.71;96.41;102031.72;5040242;28;20408;-58
2022/10/04 07:38:52;;;;;;;18.10;7.65;;;;;;;9.79;96.90;102037.25;5033019;28;21024;-58
2022/10/04 07:41:34;;;;;;;16.08;7.45;;;;;;;9.90;96.69;102046.09;5032978;28;20273;-58
2022/10/04 07:44:19;;;;;;;15.35;7.75;;;;;;;9.99;96.33;102050.63;5032929;28;20463;-57
2022/10/04 07:46:53;;;;;;;17.95;8.00;;;;;;;10.01;95.80;102040.75;5033666;28;20029;-58
2022/10/04 07:49:21;;;;;;;17.80;8.00;;;;;;;10.11;95.81;102047.94;5035086;28;20132;-59
2022/10/04 07:52:15;;;;;;;17.63;8.05;;;;;;;10.18;95.70;102049.09;5037043;28;20040;-58
2022/10/04 07:55:09;;;;;;;15.90;7.82;;;;;;;10.28;96.48;102050.00;5033909;28;20071;-58
2022/10/04 07:57:48;;;;;;;20.85;7.75;;;;;;;10.32;94.89;102040.81;5033019;28;20380;-58
2022/10/04 08:00:20;;;;;;;17.38;8.32;;;;;;;10.35;94.46;102024.66;5045177;28;20115;-59
2022/10/04 08:02:59;;;;;;;17.63;8.05;;;;;;;10.46;94.96;102030.88;5035806;28;20029;-58
2022/10/04 08:05:40;;;;;;;17.85;7.90;;;;;;;10.53;94.20;102037.34;5043188;28;20025;-57
2022/10/04 08:08:30;;;;;;;13.75;7.60;;;;;;;10.62;94.64;102036.53;5044544;28;20549;-57
2022/10/04 08:11:15;;;;;;;15.85;7.72;;;;;;;10.69;93.69;102036.00;5038697;28;20497;-58
2022/10/04 08:14:06;;;;;;;15.95;7.72;;;;;;;10.73;93.88;102022.34;5041851;28;20030;-58
2022/10/04 08:16:35;;;;;;;15.65;8.00;;;;;;;10.79;92.66;102026.28;5044928;28;20034;-57
2022/10/04 08:19:38;;;;;;;14.82;7.88;;;;;;;10.88;93.27;102020.19;5045814;28;20116;-57
2022/10/04 08:22:31;;;;;;;16.65;8.00;;;;;;;10.97;92.79;102023.00;5044681;28;20481;-57
2022/10/04 08:25:00;;;;;;;12.50;7.30;;;;;;;11.02;92.65;102026.09;5046884;28;20036;-58
2022/10/04 08:27:38;;;;;;;14.82;7.22;;;;;;;11.12;92.90;102029.63;5034340;28;20044;-58
2022/10/04 08:30:15;;;;;;;17.55;7.22;;;;;;;11.26;91.47;102024.88;5033380;28;20109;-58
2022/10/04 08:33:11;;;;;;;15.48;7.55;;;;;;;11.29;91.47;102036.06;5039575;28;20030;-59
2022/10/04 08:35:43;;;;;;;15.52;7.20;;;;;;;11.27;91.09;102023.91;5045347;28;20029;-57
2022/10/04 08:38:30;;;;;;;15.88;7.30;;;;;;;11.28;89.43;102045.03;5030613;28;20060;-58
2022/10/04 08:41:23;;;;;;;15.05;7.60;;;;;;;11.22;90.23;102036.75;5038731;28;20105;-58
2022/10/04 08:44:37;;;;;;;15.27;7.82;;;;;;;11.27;90.68;102039.84;5032476;28;20546;-58
2022/10/04 08:47:30;;;;;;;14.77;7.95;;;;;;;11.37;89.86;102031.88;5035387;28;20036;-57
2022/10/04 08:50:18;;;;;;;15.63;7.85;;;;;;;11.46;90.97;102035.53;5044322;28;20102;-58
2022/10/04 08:53:16;;;;;;;16.58;8.13;;;;;;;11.57;90.65;102040.72;5049131;28;20029;-58
2022/10/04 08:55:58;;;;;;;15.80;7.78;;;;;;;11.63;90.51;102034.84;5038735;28;20038;-58
2022/10/04 08:59:18;;;;;;;16.42;7.93;;;;;;;11.75;90.49;102034.72;5032484;28;20034;-59
2022/10/04 09:02:12;;;;;;;16.88;8.50;;;;;;;11.80;89.32;102030.66;5040380;28;20036;-58
2022/10/04 09:04:40;;;;;;;;;;;;;;;11.90;91.02;102025.31;5037801;28;20029;-59
2022/10/04 09:07:38;;;;;;;17.42;8.55;;;;;;;11.97;89.20;102022.97;5048150;28;20131;-57
2022/10/04 09:10:56;;;;;;;17.38;8.30;;;;;;;12.07;88.21;102033.59;5042822;28;20116;-56
2022/10/04 09:13:41;;;;;;;17.48;9.02;;;;;;;12.14;87.90;102048.00;5074769;28;20021;-61
2022/10/04 09:16:45;;;;;;;16.00;8.23;;;;;;;12.22;88.58;102056.13;5031807;28;20110;-61
2022/10/04 09:19:21;;;;;;;17.80;8.50;;;;;;;12.28;85.82;102044.06;5034028;28;20022;-62
2022/10/04 09:21:55;;;;;;;18.17;8.75;;;;;;;12.38;86.25;102044.03;5039500;28;20038;-62
2022/10/04 09:24:42;;;;;;;18.63;8.80;;;;;;;12.45;85.57;102039.84;5037897;28;20388;-61
2022/10/04 09:27:43;;;;;;;15.88;8.57;;;;;;;12.48;85.53;102039.53;5043433;28;20021;-61
2022/10/04 09:30:24;;;;;;;20.35;8.50;;;;;;;12.57;85.23;102026.34;5036495;28;20021;-62
2022/10/04 09:33:29;;;;;;;16.75;8.30;;;;;;;12.62;85.91;102032.06;5033330;28;20044;-61
2022/10/04 09:36:15;;;;;;;16.95;7.80;;;;;;;12.72;85.34;102018.72;5035927;28;20048;-62
2022/10/04 09:39:26;;;;;;;17.88;8.45;;;;;;;12.76;85.91;102018.31;5045197;28;20056;-61
2022/10/04 09:42:21;;;;;;;18.92;8.07;;;;;;;12.85;85.15;102013.06;5037650;28;20021;-55
2022/10/04 09:45:04;;;;;;;17.85;7.75;;;;;;;12.91;83.33;102009.81;5035055;28;20033;-54
2022/10/04 09:47:36;;;;;;;;;;;;;;;12.96;85.22;102004.88;5044454;28;20123;-55
2022/10/04 09:50:25;;;;;;;16.83;7.90;;;;;;;13.00;82.40;102006.28;5033339;28;19920;-54
2022/10/04 09:53:20;;;;;;;15.93;7.63;;;;;;;13.08;83.55;102012.69;5033207;28;20033;-53
2022/10/04 09:56:09;;;;;;;14.73;7.55;;;;;;;13.16;83.68;102018.94;5034184;28;20029;-53
2022/10/04 09:59:01;;;;;;;15.93;7.18;;;;;;;13.25;82.08;102019.00;5033669;28;20497;-55
2022/10/04 10:02:05;;;;;;;14.00;6.78;;;;;;;13.34;83.15;102033.25;5039674;28;20033;-56
2022/10/04 10:04:47;;;;;;;14.50;7.13;;;;;;;13.37;81.69;102012.47;5044451;28;20146;-53
2022/10/04 10:07:15;;;;;;;15.00;7.18;;;;;;;13.42;81.39;102020.03;5036318;28;20041;-55
2022/10/04 10:16:20;;;;;;;15.85;7.25;;;;;;;13.58;79.28;102009.53;5048665;28;20428;-55
2022/10/04 10:19:15;;;;;;;15.73;7.40;;;;;;;13.55;80.56;102009.88;5037518;28;20086;-55
2022/10/04 10:21:48;;;;;;;13.68;7.22;;;;;;;13.64;80.14;102004.59;5039874;28;20084;-55
2022/10/04 10:24:30;;;;;;;12.50;6.88;;;;;;;13.69;80.06;102002.31;5044080;28;20452;-55
2022/10/04 10:27:08;;;;;;;12.98;6.85;;;;;;;13.72;78.52;101996.69;5036936;28;20033;-55
2022/10/04 10:29:52;;;;;;;14.80;6.82;;;;;;;13.80;79.09;101986.06;5037732;28;20057;-54
2022/10/04 10:32:53;;;;;;;15.45;6.63;;;;;;;13.87;78.95;101980.13;5036472;28;20382;-55
2022/10/04 10:35:26;;;;;;;15.38;7.30;;;;;;;13.93;78.13;101988.34;5038174;28;20053;-56
2022/10/04 10:38:20;;;;;;;16.27;6.63;;;;;;;14.00;79.25;101991.22;5035335;28;20036;-55
2022/10/04 10:40:52;;;;;;;15.27;6.57;;;;;;;14.10;77.88;101997.28;5037234;28;20051;-53
2022/10/04 10:44:01;;;;;;;12.57;6.60;;;;;;;14.18;78.55;101995.66;5038175;28;20112;-55
2022/10/04 10:46:51;;;;;;;12.57;6.68;;;;;;;14.32;78.87;101996.94;5042856;28;20029;-57
2022/10/04 10:49:31;;;;;;;13.50;6.28;;;;;;;14.42;77.96;101988.81;5051608;28;20070;-57
2022/10/04 10:52:11;;;;;;;14.65;6.35;;;;;;;14.51;76.83;102001.22;5047629;28;20423;-58
2022/10/04 10:54:54;;;;;;;13.88;6.47;;;;;;;14.61;75.29;102009.91;5039839;28;20026;-58
2022/10/04 10:57:54;;;;;;;11.38;5.93;;;;;;;14.59;77.37;102003.91;5041080;28;20048;-57
2022/10/04 11:00:22;;;;;;;12.27;5.70;;;;;;;14.54;76.04;102003.53;5043675;28;20116;-57
2022/10/04 11:03:03;;;;;;;12.82;5.70;;;;;;;14.61;74.60;101993.91;5049278;28;20029;-59
2022/10/04 11:06:06;;;;;;;11.82;5.88;;;;;;;14.61;75.81;101988.56;5031566;28;20163;-59
2022/10/04 11:09:19;;;;;;;13.15;6.50;;;;;;;14.65;73.91;101984.56;5041184;28;20123;-58
2022/10/04 11:12:04;;;;;;;12.77;6.05;;;;;;;14.73;74.29;101980.25;5037137;28;20534;-57
2022/10/04 11:14:52;;;;;;;15.23;5.72;;;;;;;14.76;73.83;101974.66;5032438;28;20131;-57
2022/10/04 11:17:42;;;;;;;15.20;5.90;;;;;;;14.82;74.20;101963.31;5035279;28;20034;-58
2022/10/04 11:20:32;;;;;;;10.20;5.50;;;;;;;14.88;74.38;101967.16;5040329;28;20051;-58
2022/10/04 11:23:04;;;;;;;9.57;5.68;;;;;;;14.97;73.04;101965.34;5036678;28;20319;-58
2022/10/04 11:25:47;;;;;;;12.07;5.53;;;;;;;15.04;73.44;101961.00;5032226;28;20094;-57
2022/10/04 11:28:17;;;;;;;11.43;5.28;;;;;;;15.09;71.77;101956.03;5039333;28;20037;-58
2022/10/04 11:31:22;;;;;;;9.95;5.68;;;;;;;15.15;72.05;101947.34;5038980;28;20025;-57
2022/10/04 11:33:57;;;;;;;13.48;5.55;;;;;;;15.20;70.45;101950.38;5038133;28;20029;-60
2022/10/04 11:36:47;;;;;;;12.82;5.53;;;;;;;15.24;70.91;101950.06;5034880;28;20057;-58
2022/10/04 11:39:29;;;;;;;11.60;5.28;;;;;;;15.32;70.78;101940.22;5039345;28;20107;-58
2022/10/04 11:42:29;;;;;;;11.55;5.55;;;;;;;15.44;69.47;101946.03;5039320;28;20045;-58
2022/10/04 11:45:32;;;;;;;13.45;4.95;;;;;;;15.40;70.61;101939.34;5034880;28;20037;-58
2022/10/04 11:48:08;;;;;;;;;;;;;;;15.52;72.30;101941.69;5037003;28;20039;-58
2022/10/04 11:50:52;;;;;;;11.25;4.85;;;;;;;15.71;68.16;101935.19;5037409;28;19916;-59
2022/10/04 11:53:36;;;;;;;9.48;4.78;;;;;;;15.85;70.02;101930.97;5035721;28;20037;-58
2022/10/04 11:56:07;;;;;;;9.88;5.00;;;;;;;15.91;67.47;101930.31;5036641;28;20782;-58
2022/10/04 11:58:51;;;;;;;10.02;4.50;;;;;;;15.93;67.40;101925.63;5034387;28;20446;-58
2022/10/04 12:01:41;;;;;;;11.57;4.80;;;;;;;15.88;67.31;101930.63;5033407;28;20025;-58
2022/10/04 12:04:20;;;;;;;9.43;4.40;;;;;;;15.90;66.60;101931.31;5032783;28;20029;-59
2022/10/04 12:06:57;;;;;;;7.80;4.20;;;;;;;15.95;67.99;101930.81;5035995;28;20431;-60
2022/10/04 12:09:33;;;;;;;7.75;4.20;;;;;;;15.91;66.77;101934.81;5033447;28;20033;-60
2022/10/04 12:12:36;;;;;;;8.68;3.90;;;;;;;15.90;64.54;101933.13;5037856;28;20026;-58
2022/10/04 12:15:17;;;;;;;8.73;3.92;;;;;;;15.93;65.93;101927.50;5040336;28;20074;-58
2022/10/04 12:18:04;;;;;;;9.50;4.32;;;;;;;15.99;66.64;101924.94;5037741;28;20056;-59
2022/10/04 12:21:00;;;;;;;7.38;4.10;;;;;;;16.06;66.09;101926.94;5034579;28;20121;-59
2022/10/04 12:23:47;;;;;;;11.05;4.32;;;;;;;16.13;66.46;101911.88;5035446;28;20041;-59